Time,TemperatureF,DewpointF,PressureIn,WindDirection,WindDirectionDegrees,WindSpeedMPH,WindSpeedGustMPH,Humidity,HourlyPrecipIn,Conditions,Clouds,dailyrainin,SoftwareType,DateUTC
2013-02-20 00:00:00,42.4,19.2,25.40,NNW,335,0.0,0.0,39,0.00,,---,0.00,VWS V13.01,2013-02-20 06:00:00,
2013-02-20 00:06:00,42.4,19.2,25.40,NNW,335,0.0,0.0,39,0.00,,---,0.00,VWS V13.01,2013-02-20 06:06:00,
2013-02-20 00:11:00,42.3,19.1,25.40,NNW,335,0.0,0.0,39,0.00,,---,0.00,VWS V13.01,2013-02-20 06:11:00,
2013-02-20 00:16:00,41.9,18.8,25.40,NNW,335,0.0,0.0,39,0.00,,---,0.00,VWS V13.01,2013-02-20 06:16:00,
2013-02-20 00:21:00,41.9,18.8,25.40,NNW,335,0.0,0.0,39,0.00,,---,0.00,VWS V13.01,2013-02-20 06:21:00,
2013-02-20 00:26:00,41.9,18.8,25.40,NNW,335,0.0,0.0,39,0.00,,---,0.00,VWS V13.01,2013-02-20 06:26:00,
2013-02-20 00:31:00,41.7,18.6,25.40,NNW,335,0.0,0.0,39,0.00,,---,0.00,VWS V13.01,2013-02-20 06:31:00,
2013-02-20 00:36:00,41.7,18.6,25.40,NNW,335,0.0,0.0,39,0.00,,---,0.00,VWS V13.01,2013-02-20 06:36:00,
2013-02-20 00:41:00,41.9,18.8,25.37,NNW,335,0.0,0.0,39,0.00,,---,0.00,VWS V13.01,2013-02-20 06:41:00,
2013-02-20 00:46:00,41.9,18.8,25.37,NNW,335,0.0,0.0,39,0.00,,---,0.00,VWS V13.01,2013-02-20 06:46:00,
2013-02-20 00:51:00,42.4,19.2,25.37,NNW,335,0.0,0.0,39,0.00,,---,0.00,VWS V13.01,2013-02-20 06:51:00,
2013-02-20 00:56:00,42.4,19.2,25.37,NNW,335,0.0,0.0,39,0.00,,---,0.00,VWS V13.01,2013-02-20 06:56:00,
2013-02-20 01:01:00,42.3,19.1,25.37,NNW,335,0.0,0.0,39,0.00,,---,0.00,VWS V13.01,2013-02-20 07:01:00,
2013-02-20 01:06:00,42.3,19.1,25.37,NW,324,2.7,2.7,39,0.00,,---,0.00,VWS V13.01,2013-02-20 07:06:00,
2013-02-20 01:11:00,42.1,18.9,25.37,NW,324,2.7,2.7,39,0.00,,---,0.00,VWS V13.01,2013-02-20 07:11:00,
2013-02-20 01:16:00,42.1,18.9,25.37,NW,324,2.7,2.7,39,0.00,,---,0.00,VWS V13.01,2013-02-20 07:16:00,
2013-02-20 01:21:00,41.9,18.8,25.37,NW,311,0.0,0.0,39,0.00,,---,0.00,VWS V13.01,2013-02-20 07:21:00,
2013-02-20 01:26:00,41.9,18.8,25.37,NW,311,0.0,0.0,39,0.00,,---,0.00,VWS V13.01,2013-02-20 07:26:00,
2013-02-20 01:31:00,42.1,18.9,25.37,NW,311,0.0,0.0,39,0.00,,---,0.00,VWS V13.01,2013-02-20 07:31:00,
2013-02-20 01:36:00,42.6,18.8,25.37,South,182,4.0,4.0,38,0.00,,---,0.00,VWS V13.01,2013-02-20 07:36:00,
2013-02-20 01:41:00,42.1,15.1,25.37,SSE,156,11.9,11.9,33,0.00,,---,0.00,VWS V13.01,2013-02-20 07:41:00,
2013-02-20 01:46:00,41.9,14.9,25.34,SE,140,5.8,5.8,33,0.00,,---,0.00,VWS V13.01,2013-02-20 07:46:00,
2013-02-20 01:51:00,41.9,14.9,25.34,SE,140,5.8,5.8,33,0.00,,---,0.00,VWS V13.01,2013-02-20 07:51:00,
2013-02-20 01:56:00,41.5,15.3,25.34,SSE,167,6.7,6.7,34,0.00,,---,0.00,VWS V13.01,2013-02-20 07:56:00,
2013-02-20 02:05:00,41.5,13.9,25.34,SSE,160,4.0,4.0,32,0.00,,---,0.00,VWS V13.01,2013-02-20 08:05:00,
2013-02-20 02:10:00,41.2,13.6,25.34,SSE,164,3.1,3.1,32,0.00,,---,0.00,VWS V13.01,2013-02-20 08:10:00,
2013-02-20 02:15:00,41.2,13.6,25.34,SSE,163,2.7,2.7,32,0.00,,---,0.00,VWS V13.01,2013-02-20 08:15:00,
2013-02-20 02:20:00,40.3,12.8,25.34,SSE,163,2.7,2.7,32,0.00,,---,0.00,VWS V13.01,2013-02-20 08:20:00,
2013-02-20 02:25:00,39.7,12.3,25.34,South,188,2.7,2.7,32,0.00,,---,0.00,VWS V13.01,2013-02-20 08:25:00,
2013-02-20 02:30:00,39.6,12.1,25.34,South,188,2.2,2.2,32,0.00,,---,0.00,VWS V13.01,2013-02-20 08:30:00,
2013-02-20 02:35:00,37.8,11.3,25.34,South,188,2.2,2.2,33,0.00,,---,0.00,VWS V13.01,2013-02-20 08:35:00,
2013-02-20 02:40:00,37.2,12.1,25.34,South,188,0.0,0.0,35,0.00,,---,0.00,VWS V13.01,2013-02-20 08:40:00,
2013-02-20 02:45:00,36.7,12.9,25.34,South,188,0.0,0.0,37,0.00,,---,0.00,VWS V13.01,2013-02-20 08:45:00,
2013-02-20 02:50:00,36.1,13.6,25.34,South,188,0.0,0.0,39,0.00,,---,0.00,VWS V13.01,2013-02-20 08:50:00,
2013-02-20 02:55:00,36.1,13.6,25.34,South,188,0.0,0.0,39,0.00,,---,0.00,VWS V13.01,2013-02-20 08:55:00,
2013-02-20 03:00:00,35.8,13.8,25.31,South,188,0.0,0.0,40,0.00,,---,0.00,VWS V13.01,2013-02-20 09:00:00,
2013-02-20 03:05:00,35.8,13.8,25.31,South,188,0.0,0.0,40,0.00,,---,0.00,VWS V13.01,2013-02-20 09:05:00,
2013-02-20 03:10:00,34.7,12.9,25.31,South,188,0.0,0.0,40,0.00,,---,0.00,VWS V13.01,2013-02-20 09:10:00,
2013-02-20 03:15:00,34.0,12.2,25.31,South,188,0.0,0.0,40,0.00,,---,0.00,VWS V13.01,2013-02-20 09:15:00,
2013-02-20 03:20:00,33.6,12.4,25.31,South,188,0.0,0.0,41,0.00,,---,0.00,VWS V13.01,2013-02-20 09:20:00,
2013-02-20 03:25:00,33.8,13.7,25.31,South,188,0.0,0.0,43,0.00,,---,0.00,VWS V13.01,2013-02-20 09:25:00,
2013-02-20 03:30:00,33.6,13.5,25.31,South,188,0.0,0.0,43,0.00,,---,0.00,VWS V13.01,2013-02-20 09:30:00,
2013-02-20 03:35:00,32.9,12.3,25.31,South,188,0.0,0.0,42,0.00,,---,0.00,VWS V13.01,2013-02-20 09:35:00,
2013-02-20 03:40:00,32.4,11.9,25.31,South,188,0.0,0.0,42,0.00,,---,0.00,VWS V13.01,2013-02-20 09:40:00,
2013-02-20 03:45:00,31.6,12.2,25.31,South,188,0.0,0.0,44,0.00,,---,0.00,VWS V13.01,2013-02-20 09:45:00,
2013-02-20 03:50:00,31.5,12.1,25.31,South,188,0.0,0.0,44,0.00,,---,0.00,VWS V13.01,2013-02-20 09:50:00,
2013-02-20 03:55:00,31.1,12.2,25.31,South,191,0.0,0.0,45,0.00,,---,0.00,VWS V13.01,2013-02-20 09:55:00,
2013-02-20 04:00:00,31.3,13.9,25.31,North,350,2.7,2.7,48,0.00,,---,0.00,VWS V13.01,2013-02-20 10:00:00,
2013-02-20 04:05:00,31.3,13.9,25.31,North,350,2.7,2.7,48,0.00,,---,0.00,VWS V13.01,2013-02-20 10:05:00,
2013-02-20 04:10:00,30.9,13.6,25.31,North,353,0.0,0.0,48,0.00,,---,0.00,VWS V13.01,2013-02-20 10:10:00,
2013-02-20 04:15:00,30.4,13.1,25.31,North,353,0.0,0.0,48,0.00,,---,0.00,VWS V13.01,2013-02-20 10:15:00,
2013-02-20 04:20:00,30.4,14.0,25.31,North,353,0.0,0.0,50,0.00,,---,0.00,VWS V13.01,2013-02-20 10:20:00,
2013-02-20 04:25:00,30.6,14.6,25.31,NW,316,0.0,0.0,51,0.00,,---,0.00,VWS V13.01,2013-02-20 10:25:00,
2013-02-20 04:30:00,30.6,14.6,25.28,NNW,327,0.0,0.0,51,0.00,,---,0.00,VWS V13.01,2013-02-20 10:30:00,
2013-02-20 04:35:00,30.6,15.0,25.28,NNW,327,0.0,0.0,52,0.00,,---,0.00,VWS V13.01,2013-02-20 10:35:00,
2013-02-20 04:40:00,30.4,14.9,25.28,NNW,327,0.0,0.0,52,0.00,,---,0.00,VWS V13.01,2013-02-20 10:40:00,
2013-02-20 04:45:00,30.9,15.8,25.28,NNE,15,3.6,3.6,53,0.00,,---,0.00,VWS V13.01,2013-02-20 10:45:00,
2013-02-20 04:50:00,30.9,15.8,25.28,North,7,0.0,0.0,53,0.00,,---,0.00,VWS V13.01,2013-02-20 10:50:00,
2013-02-20 04:55:00,30.7,15.6,25.28,North,7,0.0,0.0,53,0.00,,---,0.00,VWS V13.01,2013-02-20 10:55:00,
2013-02-20 05:00:00,29.5,14.0,25.28,North,6,0.0,0.0,52,0.00,,---,0.00,VWS V13.01,2013-02-20 11:00:00,
2013-02-20 05:05:00,29.5,14.0,25.28,North,6,0.0,0.0,52,0.00,,---,0.00,VWS V13.01,2013-02-20 11:05:00,
2013-02-20 05:10:00,28.6,13.6,25.28,North,6,0.0,0.0,53,0.00,,---,0.00,VWS V13.01,2013-02-20 11:10:00,
2013-02-20 05:15:00,28.8,14.2,25.28,North,6,0.0,0.0,54,0.00,,---,0.00,VWS V13.01,2013-02-20 11:15:00,
2013-02-20 05:20:00,29.1,15.0,25.28,North,11,2.7,2.7,55,0.00,,---,0.00,VWS V13.01,2013-02-20 11:20:00,
2013-02-20 05:24:00,29.1,15.0,25.28,NNE,22,0.0,0.0,55,0.00,,---,0.00,VWS V13.01,2013-02-20 11:24:00,
2013-02-20 05:30:00,28.4,14.7,25.28,NNE,22,0.0,0.0,56,0.00,,---,0.00,VWS V13.01,2013-02-20 11:30:00,
2013-02-20 05:35:00,27.0,13.4,25.28,NNE,22,0.0,0.0,56,0.00,,---,0.00,VWS V13.01,2013-02-20 11:35:00,
2013-02-20 05:40:00,27.0,13.4,25.28,NNE,22,0.0,0.0,56,0.00,,---,0.00,VWS V13.01,2013-02-20 11:40:00,
2013-02-20 05:45:00,27.1,15.5,25.28,NNE,22,0.0,0.0,61,0.00,,---,0.00,VWS V13.01,2013-02-20 11:45:00,
2013-02-20 05:50:00,27.1,15.5,25.28,NNE,24,0.0,0.0,61,0.00,,---,0.00,VWS V13.01,2013-02-20 11:50:00,
2013-02-20 05:55:00,28.6,19.0,25.28,NNE,24,0.0,0.0,67,0.00,,---,0.00,VWS V13.01,2013-02-20 11:55:00,
2013-02-20 06:00:00,28.6,19.0,25.28,SE,142,0.0,0.0,67,0.00,,---,0.00,VWS V13.01,2013-02-20 12:00:00,
2013-02-20 06:05:00,29.3,19.7,25.28,SE,142,0.0,0.0,67,0.00,,---,0.00,VWS V13.01,2013-02-20 12:05:00,
2013-02-20 06:10:00,29.5,19.2,25.28,SE,125,0.0,0.0,65,0.00,,---,0.00,VWS V13.01,2013-02-20 12:10:00,
2013-02-20 06:15:00,29.5,19.2,25.28,ESE,105,0.0,0.0,65,0.00,,---,0.00,VWS V13.01,2013-02-20 12:15:00,
2013-02-20 06:20:00,29.1,18.8,25.28,SSW,194,0.0,0.0,65,0.00,,---,0.00,VWS V13.01,2013-02-20 12:20:00,
2013-02-20 06:25:00,29.1,18.8,25.28,SSW,194,0.0,0.0,65,0.00,,---,0.00,VWS V13.01,2013-02-20 12:25:00,
2013-02-20 06:30:00,28.6,17.2,25.28,SSW,194,0.0,0.0,62,0.00,,---,0.00,VWS V13.01,2013-02-20 12:30:00,
2013-02-20 06:35:00,28.9,17.9,25.28,SSW,197,0.0,0.0,63,0.00,,---,0.00,VWS V13.01,2013-02-20 12:35:00,
2013-02-20 06:40:00,29.5,18.8,25.28,SSW,197,0.0,0.0,64,0.00,,---,0.00,VWS V13.01,2013-02-20 12:40:00,
2013-02-20 06:45:00,29.5,18.8,25.28,SSW,196,0.0,0.0,64,0.00,,---,0.00,VWS V13.01,2013-02-20 12:45:00,
2013-02-20 06:50:00,29.5,18.8,25.28,ENE,71,0.0,0.0,64,0.00,,---,0.00,VWS V13.01,2013-02-20 12:50:00,
2013-02-20 06:55:00,31.6,22.3,25.28,ENE,71,0.0,0.0,68,0.00,,---,0.00,VWS V13.01,2013-02-20 12:55:00,
2013-02-20 07:00:00,31.6,22.3,25.31,ENE,77,3.6,3.6,68,0.00,,---,0.00,VWS V13.01,2013-02-20 13:00:00,
2013-02-20 07:05:00,30.2,17.6,25.31,ENE,77,3.6,3.6,59,0.00,,---,0.00,VWS V13.01,2013-02-20 13:05:00,
2013-02-20 07:10:00,29.8,18.0,25.31,ENE,76,0.0,0.0,61,0.00,,---,0.00,VWS V13.01,2013-02-20 13:10:00,
2013-02-20 07:15:00,29.8,18.0,25.31,ENE,76,0.0,0.0,61,0.00,,---,0.00,VWS V13.01,2013-02-20 13:15:00,
2013-02-20 07:20:00,30.2,18.4,25.31,ENE,76,0.0,0.0,61,0.00,,---,0.00,VWS V13.01,2013-02-20 13:20:00,
2013-02-20 07:25:00,30.2,18.4,25.31,ENE,76,0.0,0.0,61,0.00,,---,0.00,VWS V13.01,2013-02-20 13:25:00,
2013-02-20 07:30:00,32.5,23.2,25.31,ENE,76,0.0,0.0,68,0.00,,---,0.00,VWS V13.01,2013-02-20 13:30:00,
2013-02-20 07:35:00,32.5,23.2,25.31,ENE,77,0.0,0.0,68,0.00,,---,0.00,VWS V13.01,2013-02-20 13:35:00,
2013-02-20 07:40:00,34.5,22.1,25.31,ENE,77,0.0,0.0,60,0.00,,---,0.00,VWS V13.01,2013-02-20 13:40:00,
2013-02-20 07:45:00,34.9,19.1,25.34,ESE,112,3.1,3.1,52,0.00,,---,0.00,VWS V13.01,2013-02-20 13:45:00,
2013-02-20 07:50:00,34.9,19.1,25.34,ESE,112,3.1,3.1,52,0.00,,---,0.00,VWS V13.01,2013-02-20 13:50:00,
2013-02-20 07:55:00,38.7,19.2,25.34,ENE,77,0.0,0.0,45,0.00,,---,0.00,VWS V13.01,2013-02-20 13:55:00,
2013-02-20 08:00:00,38.7,19.2,25.34,ENE,65,0.0,0.0,45,0.00,,---,0.00,VWS V13.01,2013-02-20 14:00:00,
2013-02-20 08:05:00,43.0,19.7,25.34,ENE,65,0.0,0.0,39,0.00,,---,0.00,VWS V13.01,2013-02-20 14:05:00,
2013-02-20 08:10:00,46.9,20.7,25.34,ENE,71,0.0,0.0,35,0.00,,---,0.00,VWS V13.01,2013-02-20 14:10:00,
2013-02-20 08:15:00,46.9,20.7,25.31,ENE,71,0.0,0.0,35,0.00,,---,0.00,VWS V13.01,2013-02-20 14:15:00,
2013-02-20 08:20:00,49.5,18.5,25.31,ENE,76,0.0,0.0,29,0.00,,---,0.00,VWS V13.01,2013-02-20 14:20:00,
2013-02-20 08:25:00,49.5,18.5,25.31,ENE,73,0.0,0.0,29,0.00,,---,0.00,VWS V13.01,2013-02-20 14:25:00,
2013-02-20 08:30:00,49.5,18.5,25.31,ENE,73,0.0,0.0,29,0.00,,---,0.00,VWS V13.01,2013-02-20 14:30:00,
2013-02-20 08:35:00,49.5,18.5,25.31,East,84,0.0,0.0,29,0.00,,---,0.00,VWS V13.01,2013-02-20 14:35:00,
2013-02-20 08:40:00,49.5,18.5,25.34,East,84,0.0,0.0,29,0.00,,---,0.00,VWS V13.01,2013-02-20 14:40:00,
2013-02-20 08:45:00,57.4,20.9,25.34,ENE,72,4.9,4.9,24,0.00,,---,0.00,VWS V13.01,2013-02-20 14:45:00,
2013-02-20 08:50:00,57.4,20.9,25.34,ENE,72,4.9,4.9,24,0.00,,---,0.00,VWS V13.01,2013-02-20 14:50:00,
2013-02-20 08:55:00,58.6,19.9,25.34,ENE,71,0.0,0.0,22,0.00,,---,0.00,VWS V13.01,2013-02-20 14:55:00,
2013-02-20 09:00:00,58.6,19.9,25.34,NE,55,0.0,0.0,22,0.00,,---,0.00,VWS V13.01,2013-02-20 15:00:00,
2013-02-20 09:05:00,60.3,21.3,25.34,NE,55,0.0,0.0,22,0.00,,---,0.00,VWS V13.01,2013-02-20 15:05:00,
2013-02-20 09:10:00,58.8,20.1,25.34,SW,222,5.4,5.4,22,0.00,,---,0.00,VWS V13.01,2013-02-20 15:10:00,
2013-02-20 09:15:00,58.8,20.1,25.34,SW,222,5.4,5.4,22,0.00,,---,0.00,VWS V13.01,2013-02-20 15:15:00,
2013-02-20 09:20:00,57.0,18.6,25.34,SW,235,10.1,10.1,22,0.00,,---,0.00,VWS V13.01,2013-02-20 15:20:00,
2013-02-20 09:25:00,57.0,18.6,25.34,SW,224,11.0,11.0,22,0.00,,---,0.00,VWS V13.01,2013-02-20 15:25:00,
2013-02-20 09:30:00,57.0,18.6,25.31,SW,224,11.0,11.0,22,0.00,,---,0.00,VWS V13.01,2013-02-20 15:30:00,
2013-02-20 09:36:00,57.2,18.7,25.31,SW,231,8.1,8.1,22,0.00,,---,0.00,VWS V13.01,2013-02-20 15:36:00,
2013-02-20 09:41:00,56.8,18.4,25.31,SW,231,8.1,8.1,22,0.00,,---,0.00,VWS V13.01,2013-02-20 15:41:00,
2013-02-20 09:46:00,57.6,19.0,25.31,SW,231,8.1,8.1,22,0.00,,---,0.00,VWS V13.01,2013-02-20 15:46:00,
2013-02-20 09:51:00,57.6,19.0,25.31,SW,231,8.1,8.1,22,0.00,,---,0.00,VWS V13.01,2013-02-20 15:51:00,
2013-02-20 09:56:00,57.2,18.7,25.31,WSW,239,13.2,13.2,22,0.00,,---,0.00,VWS V13.01,2013-02-20 15:56:00,
2013-02-20 10:01:00,57.2,18.7,25.31,WSW,238,13.2,13.2,22,0.00,,---,0.00,VWS V13.01,2013-02-20 16:01:00,
2013-02-20 10:06:00,58.8,20.1,25.31,WSW,238,13.2,13.2,22,0.00,,---,0.00,VWS V13.01,2013-02-20 16:06:00,
2013-02-20 10:11:00,59.7,17.4,25.31,SW,233,11.4,11.4,19,0.00,,---,0.00,VWS V13.01,2013-02-20 16:11:00,
2013-02-20 10:16:00,59.7,17.4,25.31,SW,233,11.4,11.4,19,0.00,,---,0.00,VWS V13.01,2013-02-20 16:16:00,
2013-02-20 10:21:00,58.8,20.1,25.31,WSW,252,15.0,15.0,22,0.00,,---,0.00,VWS V13.01,2013-02-20 16:21:00,
2013-02-20 10:26:00,59.9,21.0,25.31,WSW,238,10.5,15.0,22,0.00,,---,0.00,VWS V13.01,2013-02-20 16:26:00,
2013-02-20 10:31:00,59.7,17.4,25.31,WSW,255,11.0,11.0,19,0.00,,---,0.00,VWS V13.01,2013-02-20 16:31:00,
2013-02-20 10:36:00,60.3,17.9,25.31,South,181,12.3,12.3,19,0.00,,---,0.00,VWS V13.01,2013-02-20 16:36:00,
2013-02-20 10:41:00,59.2,17.0,25.31,WSW,242,10.1,10.1,19,0.00,,---,0.00,VWS V13.01,2013-02-20 16:41:00,
2013-02-20 10:46:00,60.6,18.2,25.31,WSW,257,12.3,12.3,19,0.00,,---,0.00,VWS V13.01,2013-02-20 16:46:00,
2013-02-20 10:51:00,60.8,18.3,25.31,WSW,256,10.5,10.5,19,0.00,,---,0.00,VWS V13.01,2013-02-20 16:51:00,
2013-02-20 10:56:00,60.6,18.2,25.31,SW,224,11.0,11.0,19,0.00,,---,0.00,VWS V13.01,2013-02-20 16:56:00,
2013-02-20 11:01:00,62.4,19.6,25.31,SW,223,7.6,11.0,19,0.00,,---,0.00,VWS V13.01,2013-02-20 17:01:00,
2013-02-20 11:06:00,62.8,18.7,25.31,SW,223,7.6,7.6,18,0.00,,---,0.00,VWS V13.01,2013-02-20 17:06:00,
2013-02-20 11:11:00,63.5,19.3,25.28,SW,223,7.6,7.6,18,0.00,,---,0.00,VWS V13.01,2013-02-20 17:11:00,
2013-02-20 11:16:00,63.5,19.3,25.28,WSW,245,11.9,11.9,18,0.00,,---,0.00,VWS V13.01,2013-02-20 17:16:00,
2013-02-20 11:21:00,64.2,19.9,25.28,WSW,241,12.8,12.8,18,0.00,,---,0.00,VWS V13.01,2013-02-20 17:21:00,
2013-02-20 11:26:00,63.5,19.3,25.28,SSW,204,12.8,12.8,18,0.00,,---,0.00,VWS V13.01,2013-02-20 17:26:00,
2013-02-20 11:31:00,64.2,19.9,25.28,SW,219,10.5,10.5,18,0.00,,---,0.00,VWS V13.01,2013-02-20 17:31:00,
2013-02-20 11:36:00,64.2,19.9,25.28,WSW,252,11.0,11.0,18,0.00,,---,0.00,VWS V13.01,2013-02-20 17:36:00,
2013-02-20 11:41:00,65.7,21.0,25.28,WSW,252,11.0,11.0,18,0.00,,---,0.00,VWS V13.01,2013-02-20 17:41:00,
2013-02-20 11:46:00,64.9,20.4,25.28,SW,232,13.2,13.2,18,0.00,,---,0.00,VWS V13.01,2013-02-20 17:46:00,
2013-02-20 11:51:00,64.9,20.4,25.28,SW,232,13.2,13.2,18,0.00,,---,0.00,VWS V13.01,2013-02-20 17:51:00,
2013-02-20 11:56:00,64.6,20.1,25.28,WSW,249,13.2,13.2,18,0.00,,---,0.00,VWS V13.01,2013-02-20 17:56:00,
2013-02-20 12:01:00,65.3,20.7,25.28,WSW,249,13.2,13.2,18,0.00,,---,0.00,VWS V13.01,2013-02-20 18:01:00,
2013-02-20 12:06:00,66.4,20.3,25.28,WSW,249,13.2,13.2,17,0.00,,---,0.00,VWS V13.01,2013-02-20 18:06:00,
2013-02-20 12:11:00,66.4,20.3,25.28,West,267,8.3,8.3,17,0.00,,---,0.00,VWS V13.01,2013-02-20 18:11:00,
2013-02-20 12:16:00,66.4,20.3,25.28,West,267,8.3,8.3,17,0.00,,---,0.00,VWS V13.01,2013-02-20 18:16:00,
2013-02-20 12:21:00,65.5,20.9,25.28,WSW,246,13.2,13.2,18,0.00,,---,0.00,VWS V13.01,2013-02-20 18:21:00,
2013-02-20 12:26:00,65.5,20.9,25.25,West,264,15.4,15.4,18,0.00,,---,0.00,VWS V13.01,2013-02-20 18:26:00,
2013-02-20 12:31:00,66.2,20.1,25.25,SW,235,15.4,15.4,17,0.00,,---,0.00,VWS V13.01,2013-02-20 18:31:00,
2013-02-20 12:36:00,66.2,20.1,25.25,WSW,246,13.2,15.4,17,0.00,,---,0.00,VWS V13.01,2013-02-20 18:36:00,
2013-02-20 12:41:00,66.6,20.4,25.25,WSW,237,11.0,11.0,17,0.00,,---,0.00,VWS V13.01,2013-02-20 18:41:00,
2013-02-20 12:46:00,65.8,21.2,25.25,SW,235,14.1,14.1,18,0.00,,---,0.00,VWS V13.01,2013-02-20 18:46:00,
2013-02-20 12:51:00,65.8,21.2,25.25,SW,220,8.7,8.7,18,0.00,,---,0.00,VWS V13.01,2013-02-20 18:51:00,
2013-02-20 12:56:00,67.8,21.5,25.25,SW,220,16.8,16.8,17,0.00,,---,0.00,VWS V13.01,2013-02-20 18:56:00,
2013-02-20 13:01:00,68.0,21.6,25.22,SW,222,17.4,17.4,17,0.00,,---,0.00,VWS V13.01,2013-02-20 19:01:00,
2013-02-20 13:06:00,68.7,22.2,25.22,WSW,248,15.4,15.4,17,0.00,,---,0.00,VWS V13.01,2013-02-20 19:06:00,
2013-02-20 13:11:00,68.7,22.2,25.22,WSW,243,15.4,15.4,17,0.00,,---,0.00,VWS V13.01,2013-02-20 19:11:00,
2013-02-20 13:16:00,68.9,22.3,25.22,SW,235,12.8,12.8,17,0.00,,---,0.00,VWS V13.01,2013-02-20 19:16:00,
2013-02-20 13:21:00,68.9,22.3,25.22,WSW,237,12.3,12.3,17,0.00,,---,0.00,VWS V13.01,2013-02-20 19:21:00,
2013-02-20 13:26:00,69.6,22.9,25.22,WSW,248,15.0,15.0,17,0.00,,---,0.00,VWS V13.01,2013-02-20 19:26:00,
2013-02-20 13:31:00,69.8,23.1,25.22,West,265,12.8,12.8,17,0.00,,---,0.00,VWS V13.01,2013-02-20 19:31:00,
2013-02-20 13:36:00,69.8,23.1,25.22,SW,230,12.3,15.9,17,0.00,,---,0.00,VWS V13.01,2013-02-20 19:36:00,
2013-02-20 13:41:00,68.9,22.3,25.22,SW,230,12.3,12.3,17,0.00,,---,0.00,VWS V13.01,2013-02-20 19:41:00,
2013-02-20 13:46:00,68.9,22.3,25.22,SW,219,16.8,16.8,17,0.00,,---,0.00,VWS V13.01,2013-02-20 19:46:00,
2013-02-20 13:51:00,68.9,22.3,25.22,SSW,206,7.6,16.8,17,0.00,,---,0.00,VWS V13.01,2013-02-20 19:51:00,
2013-02-20 13:56:00,68.2,21.7,25.22,WSW,243,15.0,15.4,17,0.00,,---,0.00,VWS V13.01,2013-02-20 19:56:00,
2013-02-20 14:01:00,68.2,21.7,25.19,WSW,253,11.0,11.0,17,0.00,,---,0.00,VWS V13.01,2013-02-20 20:01:00,
2013-02-20 14:06:00,68.2,21.7,25.19,WSW,251,16.8,16.8,17,0.00,,---,0.00,VWS V13.01,2013-02-20 20:06:00,
2013-02-20 14:11:00,68.2,21.7,25.19,West,264,17.9,19.2,17,0.00,,---,0.00,VWS V13.01,2013-02-20 20:11:00,
2013-02-20 14:16:00,68.2,21.7,25.19,West,264,17.9,17.9,17,0.00,,---,0.00,VWS V13.01,2013-02-20 20:16:00,
2013-02-20 14:21:00,68.2,21.7,25.19,West,279,12.8,12.8,17,0.00,,---,0.00,VWS V13.01,2013-02-20 20:21:00,
2013-02-20 14:26:00,68.2,21.7,25.19,SW,223,15.4,15.4,17,0.00,,---,0.00,VWS V13.01,2013-02-20 20:26:00,
2013-02-20 14:31:00,68.2,21.7,25.19,SSW,206,21.5,21.5,17,0.00,,---,0.00,VWS V13.01,2013-02-20 20:31:00,
2013-02-20 14:36:00,68.2,21.7,25.19,West,265,13.2,15.4,17,0.00,,---,0.00,VWS V13.01,2013-02-20 20:36:00,
2013-02-20 14:41:00,68.2,21.7,25.19,WSW,250,14.1,14.1,17,0.00,,---,0.00,VWS V13.01,2013-02-20 20:41:00,
2013-02-20 14:46:00,68.2,21.7,25.16,WSW,247,15.0,15.0,17,0.00,,---,0.00,VWS V13.01,2013-02-20 20:46:00,
2013-02-20 14:51:00,68.2,21.7,25.16,WSW,244,14.1,15.0,17,0.00,,---,0.00,VWS V13.01,2013-02-20 20:51:00,
2013-02-20 14:56:00,72.1,23.5,25.16,WSW,239,17.4,17.4,16,0.00,,---,0.00,VWS V13.01,2013-02-20 20:56:00,
2013-02-20 15:01:00,72.1,23.5,25.16,WSW,245,16.8,16.8,16,0.00,,---,0.00,VWS V13.01,2013-02-20 21:01:00,
2013-02-20 15:06:00,72.1,23.5,25.16,West,259,15.0,15.4,16,0.00,,---,0.00,VWS V13.01,2013-02-20 21:06:00,
2013-02-20 15:11:00,72.1,23.5,25.16,SW,233,10.5,18.8,16,0.00,,---,0.00,VWS V13.01,2013-02-20 21:11:00,
2013-02-20 15:16:00,72.1,23.5,25.16,SW,235,23.7,23.7,16,0.00,,---,0.00,VWS V13.01,2013-02-20 21:16:00,
2013-02-20 15:21:00,71.4,24.4,25.16,WSW,242,13.2,13.2,17,0.00,,---,0.00,VWS V13.01,2013-02-20 21:21:00,
2013-02-20 15:26:00,71.4,24.4,25.16,WSW,253,13.2,13.2,17,0.00,,---,0.00,VWS V13.01,2013-02-20 21:26:00,
2013-02-20 15:31:00,71.4,24.4,25.16,WSW,240,12.8,12.8,17,0.00,,---,0.00,VWS V13.01,2013-02-20 21:31:00,
2013-02-20 15:36:00,71.4,24.4,25.16,SW,219,15.0,15.0,17,0.00,,---,0.00,VWS V13.01,2013-02-20 21:36:00,
2013-02-20 15:41:00,71.4,24.4,25.16,WSW,239,13.2,13.2,17,0.00,,---,0.00,VWS V13.01,2013-02-20 21:41:00,
2013-02-20 15:46:00,69.8,23.1,25.16,West,273,15.4,15.4,17,0.00,,---,0.00,VWS V13.01,2013-02-20 21:46:00,
2013-02-20 15:51:00,70.2,23.4,25.16,WSW,248,16.3,16.3,17,0.00,,---,0.00,VWS V13.01,2013-02-20 21:51:00,
2013-02-20 15:56:00,70.2,23.4,25.16,WSW,242,17.4,17.4,17,0.00,,---,0.00,VWS V13.01,2013-02-20 21:56:00,
2013-02-20 16:01:00,70.2,23.4,25.16,SSW,212,15.4,15.4,17,0.00,,---,0.00,VWS V13.01,2013-02-20 22:01:00,
2013-02-20 16:06:00,70.3,23.5,25.16,WSW,245,13.6,13.6,17,0.00,,---,0.00,VWS V13.01,2013-02-20 22:06:00,
2013-02-20 16:11:00,70.3,23.5,25.16,WSW,255,20.6,20.6,17,0.00,,---,0.00,VWS V13.01,2013-02-20 22:11:00,
2013-02-20 16:16:00,70.3,23.5,25.16,West,261,16.3,16.3,17,0.00,,---,0.00,VWS V13.01,2013-02-20 22:16:00,
2013-02-20 16:21:00,70.3,23.5,25.16,West,260,15.4,15.4,17,0.00,,---,0.00,VWS V13.01,2013-02-20 22:21:00,
2013-02-20 16:26:00,70.2,23.4,25.16,WSW,252,10.5,10.5,17,0.00,,---,0.00,VWS V13.01,2013-02-20 22:26:00,
2013-02-20 16:31:00,70.5,23.6,25.10,WSW,252,10.5,10.5,17,0.00,,---,0.00,VWS V13.01,2013-02-20 22:31:00,
2013-02-20 16:36:00,70.5,23.6,25.10,WSW,252,10.5,10.5,17,0.00,,---,0.00,VWS V13.01,2013-02-20 22:36:00,
2013-02-20 16:41:00,70.3,23.5,25.10,WSW,252,10.5,10.5,17,0.00,,---,0.00,VWS V13.01,2013-02-20 22:41:00,
2013-02-20 16:46:00,70.3,23.5,25.10,SSW,199,19.2,19.2,17,0.00,,---,0.00,VWS V13.01,2013-02-20 22:46:00,
2013-02-20 16:51:00,70.0,23.2,25.10,SW,222,9.2,9.2,17,0.00,,---,0.00,VWS V13.01,2013-02-20 22:51:00,
2013-02-20 16:56:00,70.2,23.4,25.10,WSW,252,17.4,17.4,17,0.00,,---,0.00,VWS V13.01,2013-02-20 22:56:00,
2013-02-20 17:01:00,70.0,23.2,25.10,WSW,252,17.4,17.4,17,0.00,,---,0.00,VWS V13.01,2013-02-20 23:01:00,
2013-02-20 17:06:00,69.8,23.1,25.10,WSW,239,8.3,8.3,17,0.00,,---,0.00,VWS V13.01,2013-02-20 23:06:00,
2013-02-20 17:11:00,69.8,23.1,25.10,WSW,239,8.3,8.3,17,0.00,,---,0.00,VWS V13.01,2013-02-20 23:11:00,
2013-02-20 17:16:00,69.4,22.8,25.10,WSW,239,8.3,8.3,17,0.00,,---,0.00,VWS V13.01,2013-02-20 23:16:00,
2013-02-20 17:21:00,69.6,22.9,25.10,WSW,239,8.3,8.3,17,0.00,,---,0.00,VWS V13.01,2013-02-20 23:21:00,
2013-02-20 17:26:00,69.4,22.8,25.10,SW,229,12.3,12.3,17,0.00,,---,0.00,VWS V13.01,2013-02-20 23:26:00,
2013-02-20 17:31:00,69.3,22.6,25.10,SW,228,5.8,5.8,17,0.00,,---,0.00,VWS V13.01,2013-02-20 23:31:00,
2013-02-20 17:36:00,69.3,22.6,25.10,SW,228,5.8,5.8,17,0.00,,---,0.00,VWS V13.01,2013-02-20 23:36:00,
2013-02-20 17:41:00,69.6,22.9,25.10,West,259,15.9,15.9,17,0.00,,---,0.00,VWS V13.01,2013-02-20 23:41:00,
2013-02-20 17:46:00,69.8,23.1,25.10,WSW,249,14.5,14.5,17,0.00,,---,0.00,VWS V13.01,2013-02-20 23:46:00,
2013-02-20 17:51:00,69.6,22.9,25.10,WSW,249,14.5,14.5,17,0.00,,---,0.00,VWS V13.01,2013-02-20 23:51:00,
2013-02-20 17:56:00,69.6,22.9,25.07,WSW,256,11.4,11.4,17,0.00,,---,0.00,VWS V13.01,2013-02-20 23:56:00,
2013-02-20 18:01:00,69.1,22.5,25.07,SW,232,19.7,19.7,17,0.00,,---,0.00,VWS V13.01,2013-02-21 00:01:00,
2013-02-20 18:06:00,68.7,22.2,25.07,WSW,251,12.3,12.3,17,0.00,,---,0.00,VWS V13.01,2013-02-21 00:06:00,
2013-02-20 18:11:00,68.4,21.9,25.07,WSW,251,12.3,12.3,17,0.00,,---,0.00,VWS V13.01,2013-02-21 00:11:00,
2013-02-20 18:16:00,68.2,21.7,25.10,WNW,283,13.2,13.2,17,0.00,,---,0.00,VWS V13.01,2013-02-21 00:16:00,
2013-02-20 18:21:00,68.2,21.7,25.10,WNW,288,13.2,13.2,17,0.00,,---,0.00,VWS V13.01,2013-02-21 00:21:00,
2013-02-20 18:26:00,67.3,21.0,25.10,WNW,288,13.2,13.2,17,0.00,,---,0.00,VWS V13.01,2013-02-21 00:26:00,
2013-02-20 18:31:00,67.3,21.0,25.10,West,262,12.8,12.8,17,0.00,,---,0.00,VWS V13.01,2013-02-21 00:31:00,
2013-02-20 18:36:00,66.9,20.7,25.07,West,276,11.4,11.4,17,0.00,,---,0.00,VWS V13.01,2013-02-21 00:36:00,
2013-02-20 18:41:00,66.7,20.6,25.07,West,279,10.5,10.5,17,0.00,,---,0.00,VWS V13.01,2013-02-21 00:41:00,
2013-02-20 18:46:00,66.2,20.1,25.07,West,279,10.5,10.5,17,0.00,,---,0.00,VWS V13.01,2013-02-21 00:46:00,
2013-02-20 18:51:00,66.4,20.3,25.07,West,277,8.7,8.7,17,0.00,,---,0.00,VWS V13.01,2013-02-21 00:51:00,
2013-02-20 18:56:00,66.4,20.3,25.07,West,265,17.4,17.4,17,0.00,,---,0.00,VWS V13.01,2013-02-21 00:56:00,
2013-02-20 19:01:00,66.4,20.3,25.07,West,265,17.4,17.4,17,0.00,,---,0.00,VWS V13.01,2013-02-21 01:01:00,
2013-02-20 19:06:00,66.4,20.3,25.07,West,274,15.0,15.0,17,0.00,,---,0.00,VWS V13.01,2013-02-21 01:06:00,
2013-02-20 19:11:00,66.6,20.4,25.10,West,266,19.7,19.7,17,0.00,,---,0.00,VWS V13.01,2013-02-21 01:11:00,
2013-02-20 19:16:00,66.6,20.4,25.10,West,266,19.7,19.7,17,0.00,,---,0.00,VWS V13.01,2013-02-21 01:16:00,
2013-02-20 19:21:00,66.6,20.4,25.10,West,266,19.7,19.7,17,0.00,,---,0.00,VWS V13.01,2013-02-21 01:21:00,
2013-02-20 19:26:00,66.2,20.1,25.10,NW,306,12.3,12.3,17,0.00,,---,0.00,VWS V13.01,2013-02-21 01:26:00,
2013-02-20 19:31:00,65.7,21.0,25.10,NW,306,12.3,12.3,18,0.00,,---,0.00,VWS V13.01,2013-02-21 01:31:00,
2013-02-20 19:36:00,65.5,20.9,25.10,WNW,283,15.4,15.4,18,0.00,,---,0.00,VWS V13.01,2013-02-21 01:36:00,
2013-02-20 19:41:00,64.9,20.4,25.10,West,267,8.7,8.7,18,0.00,,---,0.00,VWS V13.01,2013-02-21 01:41:00,
2013-02-20 19:46:00,64.9,20.4,25.10,West,280,15.0,15.0,18,0.00,,---,0.00,VWS V13.01,2013-02-21 01:46:00,
2013-02-20 19:51:00,65.7,21.0,25.10,WNW,292,14.5,14.5,18,0.00,,---,0.00,VWS V13.01,2013-02-21 01:51:00,
2013-02-20 19:56:00,65.5,20.9,25.10,WNW,296,17.4,17.4,18,0.00,,---,0.00,VWS V13.01,2013-02-21 01:56:00,
2013-02-20 20:01:00,65.3,20.7,25.10,WSW,258,13.6,13.6,18,0.00,,---,0.00,VWS V13.01,2013-02-21 02:01:00,
2013-02-20 20:06:00,65.3,20.7,25.10,West,278,16.8,16.8,18,0.00,,---,0.00,VWS V13.01,2013-02-21 02:06:00,
2013-02-20 20:11:00,65.3,20.7,25.10,West,278,16.8,16.8,18,0.00,,---,0.00,VWS V13.01,2013-02-21 02:11:00,
2013-02-20 20:16:00,65.3,20.7,25.10,West,269,23.7,23.7,18,0.00,,---,0.00,VWS V13.01,2013-02-21 02:16:00,
2013-02-20 20:21:00,65.5,20.9,25.10,West,273,15.4,15.4,18,0.00,,---,0.00,VWS V13.01,2013-02-21 02:21:00,
2013-02-20 20:26:00,64.4,20.0,25.10,WNW,293,13.2,13.2,18,0.00,,---,0.00,VWS V13.01,2013-02-21 02:26:00,
2013-02-20 20:31:00,62.8,18.7,25.10,WNW,296,8.7,8.7,18,0.00,,---,0.00,VWS V13.01,2013-02-21 02:31:00,
2013-02-20 20:36:00,62.2,19.5,25.10,WNW,296,8.7,8.7,19,0.00,,---,0.00,VWS V13.01,2013-02-21 02:36:00,
2013-02-20 20:41:00,61.7,19.0,25.10,WNW,296,11.0,11.0,19,0.00,,---,0.00,VWS V13.01,2013-02-21 02:41:00,
2013-02-20 20:47:00,61.7,19.0,25.13,WNW,296,11.0,11.0,19,0.00,,---,0.00,VWS V13.01,2013-02-21 02:47:00,
2013-02-20 20:52:00,61.3,18.8,25.13,WNW,302,10.1,10.1,19,0.00,,---,0.00,VWS V13.01,2013-02-21 02:52:00,
2013-02-20 20:57:00,61.3,18.8,25.13,NW,306,10.1,10.1,19,0.00,,---,0.00,VWS V13.01,2013-02-21 02:57:00,
2013-02-20 21:02:00,60.4,15.4,25.13,NW,308,11.0,11.0,17,0.00,,---,0.00,VWS V13.01,2013-02-21 03:02:00,
2013-02-20 21:07:00,59.7,14.9,25.13,NW,308,10.5,10.5,17,0.00,,---,0.00,VWS V13.01,2013-02-21 03:07:00,
2013-02-20 21:12:00,59.2,14.4,25.13,WNW,292,12.8,12.8,17,0.00,,---,0.00,VWS V13.01,2013-02-21 03:12:00,
2013-02-20 21:17:00,58.5,13.8,25.13,WNW,293,5.8,5.8,17,0.00,,---,0.00,VWS V13.01,2013-02-21 03:17:00,
2013-02-20 21:22:00,58.5,13.8,25.13,NW,311,8.3,8.3,17,0.00,,---,0.00,VWS V13.01,2013-02-21 03:22:00,
2013-02-20 21:27:00,57.4,12.9,25.13,West,279,7.6,7.6,17,0.00,,---,0.00,VWS V13.01,2013-02-21 03:27:00,
2013-02-20 21:32:00,57.4,12.9,25.13,NW,317,7.6,7.6,17,0.00,,---,0.00,VWS V13.01,2013-02-21 03:32:00,
2013-02-20 21:37:00,55.9,11.8,25.13,NNE,14,2.7,2.7,17,0.00,,---,0.00,VWS V13.01,2013-02-21 03:37:00,
2013-02-20 21:42:00,53.8,11.3,25.13,NW,309,4.0,4.0,18,0.00,,---,0.00,VWS V13.01,2013-02-21 03:42:00,
2013-02-20 21:47:00,53.8,11.3,25.13,NNW,343,3.1,3.1,18,0.00,,---,0.00,VWS V13.01,2013-02-21 03:47:00,
2013-02-20 21:52:00,51.8,9.7,25.13,North,10,14.1,14.1,18,0.00,,---,0.00,VWS V13.01,2013-02-21 03:52:00,
2013-02-20 21:57:00,51.4,10.6,25.13,NW,308,7.2,7.2,19,0.00,,---,0.00,VWS V13.01,2013-02-21 03:57:00,
2013-02-20 22:02:00,50.5,9.8,25.13,NW,317,5.4,5.4,19,0.00,,---,0.00,VWS V13.01,2013-02-21 04:02:00,
2013-02-20 22:07:00,49.5,8.9,25.13,North,4,3.6,3.6,19,0.00,,---,0.00,VWS V13.01,2013-02-21 04:07:00,
2013-02-20 22:12:00,49.5,8.9,25.13,NNW,343,5.4,5.4,19,0.00,,---,0.00,VWS V13.01,2013-02-21 04:12:00,
2013-02-20 22:17:00,49.5,8.9,25.13,North,357,3.1,3.1,19,0.00,,---,0.00,VWS V13.01,2013-02-21 04:17:00,
2013-02-20 22:22:00,48.2,7.9,25.13,NNE,17,7.6,8.1,19,0.00,,---,0.00,VWS V13.01,2013-02-21 04:22:00,
2013-02-20 22:27:00,48.2,7.9,25.13,West,261,5.4,5.4,19,0.00,,---,0.00,VWS V13.01,2013-02-21 04:27:00,
2013-02-20 22:32:00,48.2,7.9,25.13,North,353,5.4,5.4,19,0.00,,---,0.00,VWS V13.01,2013-02-21 04:32:00,
2013-02-20 22:37:00,48.2,7.9,25.13,North,353,5.4,5.4,19,0.00,,---,0.00,VWS V13.01,2013-02-21 04:37:00,
2013-02-20 22:42:00,47.7,7.4,25.13,NE,49,8.1,8.1,19,0.00,,---,0.00,VWS V13.01,2013-02-21 04:42:00,
2013-02-20 22:47:00,47.5,7.3,25.13,NW,310,5.8,5.8,19,0.00,,---,0.00,VWS V13.01,2013-02-21 04:47:00,
2013-02-20 22:52:00,47.1,7.0,25.13,NNE,30,3.6,3.6,19,0.00,,---,0.00,VWS V13.01,2013-02-21 04:52:00,
2013-02-20 22:57:00,47.1,7.0,25.13,NNW,345,3.1,3.1,19,0.00,,---,0.00,VWS V13.01,2013-02-21 04:57:00,
2013-02-20 23:00:00,46.4,6.4,25.13,North,353,4.0,4.0,19,0.00,,---,0.00,VWS V13.01,2013-02-21 05:00:00,
2013-02-20 23:05:00,46.6,6.5,25.13,NNW,340,5.4,5.4,19,0.00,,---,0.00,VWS V13.01,2013-02-21 05:05:00,
2013-02-20 23:10:00,46.6,6.5,25.16,North,8,4.9,4.9,19,0.00,,---,0.00,VWS V13.01,2013-02-21 05:10:00,
2013-02-20 23:15:00,46.6,6.5,25.16,NW,320,4.0,4.0,19,0.00,,---,0.00,VWS V13.01,2013-02-21 05:15:00,
2013-02-20 23:20:00,45.9,7.1,25.16,North,353,6.3,6.3,20,0.00,,---,0.00,VWS V13.01,2013-02-21 05:20:00,
2013-02-20 23:25:00,45.3,6.6,25.16,NW,311,3.6,5.8,20,0.00,,---,0.00,VWS V13.01,2013-02-21 05:25:00,
2013-02-20 23:30:00,45.3,6.6,25.16,NNW,329,3.6,5.8,20,0.00,,---,0.00,VWS V13.01,2013-02-21 05:30:00,
2013-02-20 23:35:00,46.2,7.4,25.16,WSW,258,3.6,6.3,20,0.00,,---,0.00,VWS V13.01,2013-02-21 05:35:00,
2013-02-20 23:40:00,46.2,7.4,25.16,NW,313,3.6,5.4,20,0.00,,---,0.00,VWS V13.01,2013-02-21 05:40:00,
2013-02-20 23:45:00,45.9,7.1,25.16,NNE,21,5.4,5.4,20,0.00,,---,0.00,VWS V13.01,2013-02-21 05:45:00,
2013-02-20 23:50:00,45.9,7.1,25.16,WSW,241,3.1,3.1,20,0.00,,---,0.00,VWS V13.01,2013-02-21 05:50:00,
2013-02-20 23:55:00,46.4,6.4,25.16,NNW,337,5.4,5.4,19,0.00,,---,0.00,VWS V13.01,2013-02-21 05:55:00,